sensor_id;sensor_type;location;lat;lon;timestamp;P1;durP1;ratioP1;P2;durP2;ratioP2
33152;SDS011;19509;43.862;26.176;2023-05-10T00:01:31;1.10;;;1.00;;
33152;SDS011;19509;43.862;26.176;2023-05-10T00:03:57;28.27;;;4.20;;
33152;SDS011;19509;43.862;26.176;2023-05-10T00:06:22;23.27;;;4.50;;
33152;SDS011;19509;43.862;26.176;2023-05-10T00:08:48;14.83;;;2.63;;
33152;SDS011;19509;43.862;26.176;2023-05-10T00:11:13;1.00;;;1.00;;
33152;SDS011;19509;43.862;26.176;2023-05-10T00:13:39;0.97;;;0.97;;
33152;SDS011;19509;43.862;26.176;2023-05-10T00:16:05;0.80;;;0.80;;
33152;SDS011;19509;43.862;26.176;2023-05-10T00:18:31;0.90;;;0.90;;
33152;SDS011;19509;43.862;26.176;2023-05-10T00:20:56;0.87;;;0.87;;
33152;SDS011;19509;43.862;26.176;2023-05-10T00:23:22;1.00;;;1.00;;
33152;SDS011;19509;43.862;26.176;2023-05-10T00:25:47;1.00;;;0.90;;
33152;SDS011;19509;43.862;26.176;2023-05-10T00:28:13;0.80;;;0.80;;
33152;SDS011;19509;43.862;26.176;2023-05-10T00:30:38;3.07;;;1.47;;
33152;SDS011;19509;43.862;26.176;2023-05-10T00:33:04;41.70;;;7.10;;
33152;SDS011;19509;43.862;26.176;2023-05-10T00:35:30;18.93;;;3.90;;
33152;SDS011;19509;43.862;26.176;2023-05-10T00:37:55;6.37;;;1.77;;
33152;SDS011;19509;43.862;26.176;2023-05-10T00:40:21;0.80;;;0.80;;
33152;SDS011;19509;43.862;26.176;2023-05-10T00:42:46;0.70;;;0.70;;
33152;SDS011;19509;43.862;26.176;2023-05-10T00:45:12;0.73;;;0.73;;
33152;SDS011;19509;43.862;26.176;2023-05-10T00:47:38;1.03;;;1.00;;
33152;SDS011;19509;43.862;26.176;2023-05-10T00:50:04;1.00;;;1.00;;
33152;SDS011;19509;43.862;26.176;2023-05-10T00:52:31;0.90;;;0.90;;
33152;SDS011;19509;43.862;26.176;2023-05-10T00:54:57;1.13;;;1.13;;
33152;SDS011;19509;43.862;26.176;2023-05-10T00:57:22;1.20;;;1.20;;
33152;SDS011;19509;43.862;26.176;2023-05-10T00:59:48;1.30;;;1.30;;
33152;SDS011;19509;43.862;26.176;2023-05-10T01:02:14;1.00;;;1.00;;
33152;SDS011;19509;43.862;26.176;2023-05-10T01:04:40;1.17;;;1.17;;
33152;SDS011;19509;43.862;26.176;2023-05-10T01:07:05;1.20;;;1.20;;
33152;SDS011;19509;43.862;26.176;2023-05-10T01:09:31;1.20;;;1.20;;
33152;SDS011;19509;43.862;26.176;2023-05-10T01:11:58;1.20;;;1.20;;
33152;SDS011;19509;43.862;26.176;2023-05-10T01:14:24;1.23;;;1.23;;
33152;SDS011;19509;43.862;26.176;2023-05-10T01:16:51;10.43;;;2.80;;
33152;SDS011;19509;43.862;26.176;2023-05-10T01:21:56;1.20;;;1.20;;
33152;SDS011;19509;43.862;26.176;2023-05-10T01:37:55;1.37;;;1.10;;
33152;SDS011;19509;43.862;26.176;2023-05-10T01:43:22;1.20;;;1.20;;
33152;SDS011;19509;43.862;26.176;2023-05-10T01:46:05;2.43;;;1.23;;
33152;SDS011;19509;43.862;26.176;2023-05-10T01:48:43;1.40;;;1.30;;
33152;SDS011;19509;43.862;26.176;2023-05-10T01:51:14;2.80;;;1.50;;
33152;SDS011;19509;43.862;26.176;2023-05-10T01:53:45;10.70;;;2.17;;
33152;SDS011;19509;43.862;26.176;2023-05-10T01:56:12;7.10;;;1.80;;
33152;SDS011;19509;43.862;26.176;2023-05-10T01:58:40;1.77;;;1.40;;
33152;SDS011;19509;43.862;26.176;2023-05-10T02:01:10;7.60;;;1.40;;
33152;SDS011;19509;43.862;26.176;2023-05-10T02:03:37;15.87;;;2.90;;
33152;SDS011;19509;43.862;26.176;2023-05-10T02:06:04;10.00;;;1.63;;
33152;SDS011;19509;43.862;26.176;2023-05-10T02:08:32;8.90;;;2.67;;
33152;SDS011;19509;43.862;26.176;2023-05-10T02:11:00;5.00;;;1.77;;
33152;SDS011;19509;43.862;26.176;2023-05-10T02:13:27;19.53;;;4.83;;
33152;SDS011;19509;43.862;26.176;2023-05-10T02:15:54;3.63;;;1.47;;
33152;SDS011;19509;43.862;26.176;2023-05-10T02:18:22;7.07;;;1.73;;
33152;SDS011;19509;43.862;26.176;2023-05-10T02:20:49;7.60;;;1.83;;
33152;SDS011;19509;43.862;26.176;2023-05-10T02:23:16;13.43;;;5.50;;
33152;SDS011;19509;43.862;26.176;2023-05-10T02:25:43;4.10;;;1.63;;
33152;SDS011;19509;43.862;26.176;2023-05-10T02:28:10;1.30;;;1.30;;
33152;SDS011;19509;43.862;26.176;2023-05-10T02:30:37;1.57;;;1.47;;
33152;SDS011;19509;43.862;26.176;2023-05-10T02:33:03;1.20;;;1.20;;
33152;SDS011;19509;43.862;26.176;2023-05-10T02:35:30;1.67;;;1.43;;
33152;SDS011;19509;43.862;26.176;2023-05-10T02:37:58;1.43;;;1.40;;
33152;SDS011;19509;43.862;26.176;2023-05-10T02:40:25;2.00;;;1.70;;
33152;SDS011;19509;43.862;26.176;2023-05-10T02:42:52;1.43;;;1.43;;
33152;SDS011;19509;43.862;26.176;2023-05-10T02:45:21;1.60;;;1.50;;
33152;SDS011;19509;43.862;26.176;2023-05-10T02:47:51;4.30;;;1.60;;
33152;SDS011;19509;43.862;26.176;2023-05-10T02:50:17;1.97;;;1.73;;
33152;SDS011;19509;43.862;26.176;2023-05-10T02:52:44;6.23;;;1.80;;
33152;SDS011;19509;43.862;26.176;2023-05-10T02:55:14;2.40;;;1.60;;
33152;SDS011;19509;43.862;26.176;2023-05-10T02:57:42;3.43;;;1.87;;
33152;SDS011;19509;43.862;26.176;2023-05-10T03:00:13;2.20;;;1.80;;
33152;SDS011;19509;43.862;26.176;2023-05-10T03:02:39;1.70;;;1.70;;
33152;SDS011;19509;43.862;26.176;2023-05-10T03:05:05;1.80;;;1.70;;
33152;SDS011;19509;43.862;26.176;2023-05-10T03:07:31;1.70;;;1.60;;
33152;SDS011;19509;43.862;26.176;2023-05-10T03:09:59;1.57;;;1.47;;
33152;SDS011;19509;43.862;26.176;2023-05-10T03:18:23;1.50;;;1.40;;
33152;SDS011;19509;43.862;26.176;2023-05-10T03:20:57;1.40;;;1.40;;
33152;SDS011;19509;43.862;26.176;2023-05-10T03:23:27;3.03;;;1.93;;
33152;SDS011;19509;43.862;26.176;2023-05-10T03:25:58;2.57;;;1.97;;
33152;SDS011;19509;43.862;26.176;2023-05-10T03:28:25;6.97;;;2.40;;
33152;SDS011;19509;43.862;26.176;2023-05-10T03:30:52;1.47;;;1.47;;
33152;SDS011;19509;43.862;26.176;2023-05-10T03:33:19;1.70;;;1.60;;
33152;SDS011;19509;43.862;26.176;2023-05-10T03:35:45;1.33;;;1.30;;
33152;SDS011;19509;43.862;26.176;2023-05-10T03:38:11;4.53;;;1.57;;
33152;SDS011;19509;43.862;26.176;2023-05-10T03:40:37;2.00;;;1.67;;
33152;SDS011;19509;43.862;26.176;2023-05-10T03:43:03;3.10;;;1.87;;
33152;SDS011;19509;43.862;26.176;2023-05-10T03:45:29;1.30;;;1.30;;
33152;SDS011;19509;43.862;26.176;2023-05-10T03:47:55;1.30;;;1.30;;
33152;SDS011;19509;43.862;26.176;2023-05-10T03:50:22;3.17;;;1.50;;
33152;SDS011;19509;43.862;26.176;2023-05-10T03:52:47;2.03;;;1.87;;
33152;SDS011;19509;43.862;26.176;2023-05-10T03:55:13;1.20;;;1.20;;
33152;SDS011;19509;43.862;26.176;2023-05-10T03:57:39;1.10;;;1.10;;
33152;SDS011;19509;43.862;26.176;2023-05-10T04:00:04;2.00;;;1.40;;
33152;SDS011;19509;43.862;26.176;2023-05-10T04:02:30;1.13;;;1.13;;
33152;SDS011;19509;43.862;26.176;2023-05-10T04:04:56;1.37;;;1.30;;
33152;SDS011;19509;43.862;26.176;2023-05-10T04:07:21;1.30;;;1.20;;
33152;SDS011;19509;43.862;26.176;2023-05-10T04:09:47;1.30;;;1.20;;
33152;SDS011;19509;43.862;26.176;2023-05-10T04:12:12;1.30;;;1.00;;
33152;SDS011;19509;43.862;26.176;2023-05-10T04:14:38;1.10;;;1.10;;
33152;SDS011;19509;43.862;26.176;2023-05-10T04:17:03;1.17;;;1.17;;
33152;SDS011;19509;43.862;26.176;2023-05-10T04:19:32;1.00;;;1.00;;
33152;SDS011;19509;43.862;26.176;2023-05-10T04:21:58;1.07;;;1.07;;
33152;SDS011;19509;43.862;26.176;2023-05-10T04:24:24;0.97;;;0.97;;
33152;SDS011;19509;43.862;26.176;2023-05-10T04:26:50;1.07;;;1.07;;
33152;SDS011;19509;43.862;26.176;2023-05-10T04:29:16;1.00;;;1.00;;
33152;SDS011;19509;43.862;26.176;2023-05-10T04:31:41;0.80;;;0.80;;
33152;SDS011;19509;43.862;26.176;2023-05-10T04:34:07;1.00;;;1.00;;
33152;SDS011;19509;43.862;26.176;2023-05-10T04:36:32;1.10;;;1.10;;
33152;SDS011;19509;43.862;26.176;2023-05-10T04:39:00;0.93;;;0.93;;
33152;SDS011;19509;43.862;26.176;2023-05-10T04:41:27;1.20;;;1.20;;
33152;SDS011;19509;43.862;26.176;2023-05-10T04:43:53;1.03;;;1.03;;
33152;SDS011;19509;43.862;26.176;2023-05-10T04:46:18;1.20;;;1.20;;
33152;SDS011;19509;43.862;26.176;2023-05-10T04:48:44;1.00;;;1.00;;
33152;SDS011;19509;43.862;26.176;2023-05-10T04:51:09;0.90;;;0.90;;
33152;SDS011;19509;43.862;26.176;2023-05-10T04:53:35;0.93;;;0.93;;
33152;SDS011;19509;43.862;26.176;2023-05-10T04:56:00;0.90;;;0.90;;
33152;SDS011;19509;43.862;26.176;2023-05-10T04:58:26;1.00;;;1.00;;
33152;SDS011;19509;43.862;26.176;2023-05-10T05:00:52;0.90;;;0.90;;
33152;SDS011;19509;43.862;26.176;2023-05-10T05:03:17;0.90;;;0.90;;
33152;SDS011;19509;43.862;26.176;2023-05-10T05:05:43;1.00;;;1.00;;
33152;SDS011;19509;43.862;26.176;2023-05-10T05:08:09;0.80;;;0.80;;
33152;SDS011;19509;43.862;26.176;2023-05-10T05:10:35;1.00;;;1.00;;
33152;SDS011;19509;43.862;26.176;2023-05-10T05:13:00;1.00;;;1.00;;
33152;SDS011;19509;43.862;26.176;2023-05-10T05:15:26;1.10;;;1.10;;
33152;SDS011;19509;43.862;26.176;2023-05-10T05:17:52;0.93;;;0.93;;
33152;SDS011;19509;43.862;26.176;2023-05-10T05:20:17;0.80;;;0.80;;
33152;SDS011;19509;43.862;26.176;2023-05-10T05:22:44;1.00;;;1.00;;
33152;SDS011;19509;43.862;26.176;2023-05-10T05:25:09;0.80;;;0.80;;
33152;SDS011;19509;43.862;26.176;2023-05-10T05:27:36;1.10;;;1.10;;
33152;SDS011;19509;43.862;26.176;2023-05-10T05:30:02;1.30;;;1.30;;
33152;SDS011;19509;43.862;26.176;2023-05-10T05:32:28;1.70;;;1.70;;
33152;SDS011;19509;43.862;26.176;2023-05-10T05:34:54;1.27;;;1.27;;
33152;SDS011;19509;43.862;26.176;2023-05-10T05:37:20;1.97;;;1.97;;
33152;SDS011;19509;43.862;26.176;2023-05-10T05:39:46;0.90;;;0.90;;
33152;SDS011;19509;43.862;26.176;2023-05-10T05:42:12;1.27;;;1.27;;
33152;SDS011;19509;43.862;26.176;2023-05-10T05:44:38;1.10;;;1.10;;
33152;SDS011;19509;43.862;26.176;2023-05-10T05:47:04;1.10;;;1.10;;
33152;SDS011;19509;43.862;26.176;2023-05-10T05:49:30;1.00;;;1.00;;
33152;SDS011;19509;43.862;26.176;2023-05-10T05:52:02;1.20;;;1.20;;
33152;SDS011;19509;43.862;26.176;2023-05-10T05:54:29;1.00;;;1.00;;
33152;SDS011;19509;43.862;26.176;2023-05-10T05:56:59;1.00;;;1.00;;
33152;SDS011;19509;43.862;26.176;2023-05-10T05:59:25;0.90;;;0.90;;
33152;SDS011;19509;43.862;26.176;2023-05-10T06:01:51;1.00;;;1.00;;
33152;SDS011;19509;43.862;26.176;2023-05-10T06:04:16;0.97;;;0.97;;
33152;SDS011;19509;43.862;26.176;2023-05-10T06:06:42;1.00;;;1.00;;
33152;SDS011;19509;43.862;26.176;2023-05-10T06:09:08;0.97;;;0.97;;
33152;SDS011;19509;43.862;26.176;2023-05-10T06:11:34;0.90;;;0.90;;
33152;SDS011;19509;43.862;26.176;2023-05-10T06:14:00;0.90;;;0.90;;
33152;SDS011;19509;43.862;26.176;2023-05-10T06:16:26;0.80;;;0.80;;
33152;SDS011;19509;43.862;26.176;2023-05-10T06:18:52;1.00;;;1.00;;
33152;SDS011;19509;43.862;26.176;2023-05-10T06:21:17;0.80;;;0.80;;
33152;SDS011;19509;43.862;26.176;2023-05-10T06:23:43;1.00;;;1.00;;
33152;SDS011;19509;43.862;26.176;2023-05-10T06:26:09;0.90;;;0.90;;
33152;SDS011;19509;43.862;26.176;2023-05-10T06:28:34;0.80;;;0.80;;
33152;SDS011;19509;43.862;26.176;2023-05-10T06:31:02;0.80;;;0.80;;
33152;SDS011;19509;43.862;26.176;2023-05-10T06:33:29;0.90;;;0.90;;
33152;SDS011;19509;43.862;26.176;2023-05-10T06:35:54;0.73;;;0.73;;
33152;SDS011;19509;43.862;26.176;2023-05-10T06:38:20;1.20;;;1.10;;
33152;SDS011;19509;43.862;26.176;2023-05-10T06:40:45;0.80;;;0.80;;
33152;SDS011;19509;43.862;26.176;2023-05-10T06:43:11;0.90;;;0.90;;
33152;SDS011;19509;43.862;26.176;2023-05-10T06:45:36;1.00;;;1.00;;
33152;SDS011;19509;43.862;26.176;2023-05-10T06:48:02;0.80;;;0.80;;
33152;SDS011;19509;43.862;26.176;2023-05-10T06:50:28;0.80;;;0.80;;
33152;SDS011;19509;43.862;26.176;2023-05-10T06:52:53;0.80;;;0.80;;
33152;SDS011;19509;43.862;26.176;2023-05-10T06:55:20;0.80;;;0.80;;
33152;SDS011;19509;43.862;26.176;2023-05-10T06:57:45;0.80;;;0.80;;
33152;SDS011;19509;43.862;26.176;2023-05-10T07:00:12;0.80;;;0.80;;
33152;SDS011;19509;43.862;26.176;2023-05-10T07:02:38;0.70;;;0.70;;
33152;SDS011;19509;43.862;26.176;2023-05-10T07:05:04;0.83;;;0.83;;
33152;SDS011;19509;43.862;26.176;2023-05-10T07:07:30;0.70;;;0.70;;
33152;SDS011;19509;43.862;26.176;2023-05-10T07:09:56;0.70;;;0.70;;
33152;SDS011;19509;43.862;26.176;2023-05-10T07:12:22;0.60;;;0.60;;
33152;SDS011;19509;43.862;26.176;2023-05-10T07:14:48;0.70;;;0.70;;
33152;SDS011;19509;43.862;26.176;2023-05-10T07:17:14;0.67;;;0.67;;
33152;SDS011;19509;43.862;26.176;2023-05-10T07:19:39;0.83;;;0.83;;
33152;SDS011;19509;43.862;26.176;2023-05-10T07:22:04;0.60;;;0.60;;
33152;SDS011;19509;43.862;26.176;2023-05-10T07:24:31;0.70;;;0.70;;
33152;SDS011;19509;43.862;26.176;2023-05-10T07:26:57;0.60;;;0.60;;
33152;SDS011;19509;43.862;26.176;2023-05-10T07:29:23;0.60;;;0.60;;
33152;SDS011;19509;43.862;26.176;2023-05-10T07:31:48;0.50;;;0.50;;
33152;SDS011;19509;43.862;26.176;2023-05-10T07:34:13;0.70;;;0.70;;
33152;SDS011;19509;43.862;26.176;2023-05-10T07:36:39;0.60;;;0.60;;
33152;SDS011;19509;43.862;26.176;2023-05-10T07:39:05;0.60;;;0.60;;
33152;SDS011;19509;43.862;26.176;2023-05-10T07:41:30;0.73;;;0.50;;
33152;SDS011;19509;43.862;26.176;2023-05-10T07:43:56;0.60;;;0.60;;
33152;SDS011;19509;43.862;26.176;2023-05-10T07:46:21;0.53;;;0.53;;
33152;SDS011;19509;43.862;26.176;2023-05-10T07:48:47;0.50;;;0.40;;
33152;SDS011;19509;43.862;26.176;2023-05-10T07:51:12;0.63;;;0.63;;
33152;SDS011;19509;43.862;26.176;2023-05-10T07:53:38;0.50;;;0.50;;
33152;SDS011;19509;43.862;26.176;2023-05-10T07:56:24;0.50;;;0.50;;
33152;SDS011;19509;43.862;26.176;2023-05-10T07:58:57;0.50;;;0.50;;
33152;SDS011;19509;43.862;26.176;2023-05-10T08:01:24;0.60;;;0.60;;
33152;SDS011;19509;43.862;26.176;2023-05-10T08:03:50;0.60;;;0.60;;
33152;SDS011;19509;43.862;26.176;2023-05-10T08:06:19;0.50;;;0.50;;
33152;SDS011;19509;43.862;26.176;2023-05-10T08:08:46;0.50;;;0.50;;
33152;SDS011;19509;43.862;26.176;2023-05-10T08:11:17;0.50;;;0.50;;
33152;SDS011;19509;43.862;26.176;2023-05-10T08:13:44;0.60;;;0.60;;
33152;SDS011;19509;43.862;26.176;2023-05-10T08:16:10;0.60;;;0.60;;
33152;SDS011;19509;43.862;26.176;2023-05-10T08:18:36;0.80;;;0.80;;
33152;SDS011;19509;43.862;26.176;2023-05-10T08:21:02;0.50;;;0.50;;
33152;SDS011;19509;43.862;26.176;2023-05-10T08:23:28;0.60;;;0.60;;
33152;SDS011;19509;43.862;26.176;2023-05-10T08:25:53;0.60;;;0.60;;
33152;SDS011;19509;43.862;26.176;2023-05-10T08:28:19;0.50;;;0.50;;
33152;SDS011;19509;43.862;26.176;2023-05-10T08:30:44;0.50;;;0.50;;
33152;SDS011;19509;43.862;26.176;2023-05-10T08:33:10;0.50;;;0.50;;
33152;SDS011;19509;43.862;26.176;2023-05-10T08:35:36;0.53;;;0.53;;
33152;SDS011;19509;43.862;26.176;2023-05-10T08:38:01;0.50;;;0.50;;
33152;SDS011;19509;43.862;26.176;2023-05-10T08:40:27;0.47;;;0.47;;
33152;SDS011;19509;43.862;26.176;2023-05-10T08:43:02;0.60;;;0.43;;
33152;SDS011;19509;43.862;26.176;2023-05-10T08:45:32;0.50;;;0.50;;
33152;SDS011;19509;43.862;26.176;2023-05-10T08:48:01;0.50;;;0.50;;
33152;SDS011;19509;43.862;26.176;2023-05-10T08:50:27;0.60;;;0.60;;
33152;SDS011;19509;43.862;26.176;2023-05-10T08:52:55;0.43;;;0.43;;
33152;SDS011;19509;43.862;26.176;2023-05-10T08:55:25;0.50;;;0.50;;
33152;SDS011;19509;43.862;26.176;2023-05-10T08:57:50;0.40;;;0.40;;
33152;SDS011;19509;43.862;26.176;2023-05-10T09:00:17;0.50;;;0.50;;
33152;SDS011;19509;43.862;26.176;2023-05-10T09:02:43;0.50;;;0.50;;
33152;SDS011;19509;43.862;26.176;2023-05-10T09:05:10;0.50;;;0.50;;
33152;SDS011;19509;43.862;26.176;2023-05-10T09:07:37;0.50;;;0.50;;
33152;SDS011;19509;43.862;26.176;2023-05-10T09:10:03;0.40;;;0.40;;
33152;SDS011;19509;43.862;26.176;2023-05-10T09:12:29;0.50;;;0.50;;
33152;SDS011;19509;43.862;26.176;2023-05-10T09:14:55;0.50;;;0.50;;
33152;SDS011;19509;43.862;26.176;2023-05-10T09:17:23;0.57;;;0.57;;
33152;SDS011;19509;43.862;26.176;2023-05-10T09:19:49;0.50;;;0.50;;
33152;SDS011;19509;43.862;26.176;2023-05-10T09:22:15;0.50;;;0.50;;
33152;SDS011;19509;43.862;26.176;2023-05-10T09:24:42;0.43;;;0.43;;
33152;SDS011;19509;43.862;26.176;2023-05-10T09:27:10;0.50;;;0.50;;
33152;SDS011;19509;43.862;26.176;2023-05-10T09:29:39;0.50;;;0.50;;
33152;SDS011;19509;43.862;26.176;2023-05-10T09:32:07;0.50;;;0.50;;
33152;SDS011;19509;43.862;26.176;2023-05-10T09:34:32;0.50;;;0.50;;
33152;SDS011;19509;43.862;26.176;2023-05-10T09:37:00;0.50;;;0.50;;
33152;SDS011;19509;43.862;26.176;2023-05-10T09:39:31;0.50;;;0.50;;
33152;SDS011;19509;43.862;26.176;2023-05-10T09:42:07;0.40;;;0.40;;
33152;SDS011;19509;43.862;26.176;2023-05-10T09:44:34;0.50;;;0.50;;
33152;SDS011;19509;43.862;26.176;2023-05-10T09:47:02;0.50;;;0.50;;
33152;SDS011;19509;43.862;26.176;2023-05-10T09:49:28;0.50;;;0.50;;
33152;SDS011;19509;43.862;26.176;2023-05-10T09:52:02;0.60;;;0.60;;
33152;SDS011;19509;43.862;26.176;2023-05-10T09:54:29;0.50;;;0.50;;
33152;SDS011;19509;43.862;26.176;2023-05-10T09:56:55;0.43;;;0.43;;
33152;SDS011;19509;43.862;26.176;2023-05-10T09:59:20;0.50;;;0.50;;
33152;SDS011;19509;43.862;26.176;2023-05-10T10:01:49;0.50;;;0.50;;
33152;SDS011;19509;43.862;26.176;2023-05-10T10:04:16;0.47;;;0.47;;
33152;SDS011;19509;43.862;26.176;2023-05-10T10:06:42;0.47;;;0.47;;
33152;SDS011;19509;43.862;26.176;2023-05-10T10:09:08;0.40;;;0.40;;
33152;SDS011;19509;43.862;26.176;2023-05-10T10:11:35;0.40;;;0.40;;
33152;SDS011;19509;43.862;26.176;2023-05-10T10:14:00;0.50;;;0.50;;
33152;SDS011;19509;43.862;26.176;2023-05-10T10:16:29;0.40;;;0.40;;
33152;SDS011;19509;43.862;26.176;2023-05-10T10:18:56;0.40;;;0.40;;
33152;SDS011;19509;43.862;26.176;2023-05-10T10:21:22;1.23;;;0.50;;
33152;SDS011;19509;43.862;26.176;2023-05-10T10:23:48;0.50;;;0.50;;
33152;SDS011;19509;43.862;26.176;2023-05-10T10:26:14;0.40;;;0.40;;
33152;SDS011;19509;43.862;26.176;2023-05-10T10:36:44;0.40;;;0.40;;
33152;SDS011;19509;43.862;26.176;2023-05-10T10:39:11;0.97;;;0.50;;
33152;SDS011;19509;43.862;26.176;2023-05-10T10:41:40;0.40;;;0.40;;
33152;SDS011;19509;43.862;26.176;2023-05-10T10:44:23;0.50;;;0.50;;
33152;SDS011;19509;43.862;26.176;2023-05-10T10:50:07;0.60;;;0.60;;
33152;SDS011;19509;43.862;26.176;2023-05-10T10:52:35;0.40;;;0.40;;
33152;SDS011;19509;43.862;26.176;2023-05-10T10:55:05;0.50;;;0.50;;
33152;SDS011;19509;43.862;26.176;2023-05-10T10:57:44;2.87;;;0.50;;
33152;SDS011;19509;43.862;26.176;2023-05-10T11:00:27;0.40;;;0.40;;
33152;SDS011;19509;43.862;26.176;2023-05-10T11:02:59;0.40;;;0.40;;
33152;SDS011;19509;43.862;26.176;2023-05-10T11:05:47;0.50;;;0.50;;
33152;SDS011;19509;43.862;26.176;2023-05-10T11:08:15;0.50;;;0.50;;
33152;SDS011;19509;43.862;26.176;2023-05-10T11:11:02;0.50;;;0.50;;
33152;SDS011;19509;43.862;26.176;2023-05-10T11:21:44;0.50;;;0.50;;
33152;SDS011;19509;43.862;26.176;2023-05-10T11:24:28;0.47;;;0.47;;
33152;SDS011;19509;43.862;26.176;2023-05-10T11:26:53;0.40;;;0.40;;
33152;SDS011;19509;43.862;26.176;2023-05-10T11:29:19;0.40;;;0.40;;
33152;SDS011;19509;43.862;26.176;2023-05-10T11:31:45;0.40;;;0.40;;
33152;SDS011;19509;43.862;26.176;2023-05-10T11:34:22;0.40;;;0.40;;
33152;SDS011;19509;43.862;26.176;2023-05-10T11:36:55;0.50;;;0.50;;
33152;SDS011;19509;43.862;26.176;2023-05-10T11:39:21;0.40;;;0.40;;
33152;SDS011;19509;43.862;26.176;2023-05-10T11:41:54;0.50;;;0.50;;
33152;SDS011;19509;43.862;26.176;2023-05-10T11:44:19;0.40;;;0.40;;
33152;SDS011;19509;43.862;26.176;2023-05-10T11:46:45;0.40;;;0.40;;
33152;SDS011;19509;43.862;26.176;2023-05-10T11:49:11;0.57;;;0.50;;
33152;SDS011;19509;43.862;26.176;2023-05-10T11:51:38;0.40;;;0.40;;
33152;SDS011;19509;43.862;26.176;2023-05-10T11:54:08;0.40;;;0.40;;
33152;SDS011;19509;43.862;26.176;2023-05-10T11:56:35;0.50;;;0.50;;
33152;SDS011;19509;43.862;26.176;2023-05-10T11:59:02;0.50;;;0.50;;
33152;SDS011;19509;43.862;26.176;2023-05-10T12:01:28;0.40;;;0.40;;
33152;SDS011;19509;43.862;26.176;2023-05-10T12:03:55;0.50;;;0.50;;
33152;SDS011;19509;43.862;26.176;2023-05-10T12:06:28;0.50;;;0.50;;
33152;SDS011;19509;43.862;26.176;2023-05-10T12:08:56;0.60;;;0.60;;
33152;SDS011;19509;43.862;26.176;2023-05-10T12:11:26;0.50;;;0.50;;
33152;SDS011;19509;43.862;26.176;2023-05-10T12:13:53;0.40;;;0.40;;
33152;SDS011;19509;43.862;26.176;2023-05-10T12:16:20;0.50;;;0.50;;
33152;SDS011;19509;43.862;26.176;2023-05-10T12:18:48;0.40;;;0.40;;
33152;SDS011;19509;43.862;26.176;2023-05-10T12:21:18;0.50;;;0.50;;
33152;SDS011;19509;43.862;26.176;2023-05-10T12:23:45;0.40;;;0.40;;
33152;SDS011;19509;43.862;26.176;2023-05-10T12:26:12;0.50;;;0.50;;
33152;SDS011;19509;43.862;26.176;2023-05-10T12:28:38;0.40;;;0.40;;
33152;SDS011;19509;43.862;26.176;2023-05-10T12:31:04;0.43;;;0.43;;
33152;SDS011;19509;43.862;26.176;2023-05-10T12:33:37;0.40;;;0.40;;
33152;SDS011;19509;43.862;26.176;2023-05-10T12:36:07;0.40;;;0.40;;
33152;SDS011;19509;43.862;26.176;2023-05-10T12:38:37;0.40;;;0.40;;
33152;SDS011;19509;43.862;26.176;2023-05-10T12:41:11;0.40;;;0.40;;
33152;SDS011;19509;43.862;26.176;2023-05-10T12:43:38;0.50;;;0.50;;
33152;SDS011;19509;43.862;26.176;2023-05-10T12:46:12;0.43;;;0.43;;
33152;SDS011;19509;43.862;26.176;2023-05-10T12:48:39;0.40;;;0.40;;
33152;SDS011;19509;43.862;26.176;2023-05-10T12:51:06;0.50;;;0.50;;
33152;SDS011;19509;43.862;26.176;2023-05-10T12:53:41;0.43;;;0.43;;
33152;SDS011;19509;43.862;26.176;2023-05-10T12:56:07;0.40;;;0.40;;
33152;SDS011;19509;43.862;26.176;2023-05-10T12:58:32;0.40;;;0.40;;
33152;SDS011;19509;43.862;26.176;2023-05-10T13:00:58;0.40;;;0.40;;
33152;SDS011;19509;43.862;26.176;2023-05-10T13:03:25;0.50;;;0.50;;
33152;SDS011;19509;43.862;26.176;2023-05-10T13:05:50;0.50;;;0.50;;
33152;SDS011;19509;43.862;26.176;2023-05-10T13:08:16;0.50;;;0.50;;
33152;SDS011;19509;43.862;26.176;2023-05-10T13:10:41;0.40;;;0.40;;
33152;SDS011;19509;43.862;26.176;2023-05-10T13:13:07;0.50;;;0.50;;
33152;SDS011;19509;43.862;26.176;2023-05-10T13:15:33;0.47;;;0.47;;
33152;SDS011;19509;43.862;26.176;2023-05-10T13:17:59;0.50;;;0.50;;
33152;SDS011;19509;43.862;26.176;2023-05-10T13:20:25;0.40;;;0.40;;
33152;SDS011;19509;43.862;26.176;2023-05-10T13:22:50;0.40;;;0.40;;
33152;SDS011;19509;43.862;26.176;2023-05-10T13:25:16;0.50;;;0.50;;
33152;SDS011;19509;43.862;26.176;2023-05-10T13:27:41;0.40;;;0.40;;
33152;SDS011;19509;43.862;26.176;2023-05-10T13:30:08;0.47;;;0.47;;
33152;SDS011;19509;43.862;26.176;2023-05-10T13:32:34;0.40;;;0.40;;
33152;SDS011;19509;43.862;26.176;2023-05-10T13:35:00;0.47;;;0.47;;
33152;SDS011;19509;43.862;26.176;2023-05-10T13:37:28;0.40;;;0.40;;
33152;SDS011;19509;43.862;26.176;2023-05-10T13:39:54;0.40;;;0.40;;
33152;SDS011;19509;43.862;26.176;2023-05-10T13:42:19;0.50;;;0.50;;
33152;SDS011;19509;43.862;26.176;2023-05-10T13:44:45;0.40;;;0.40;;
33152;SDS011;19509;43.862;26.176;2023-05-10T13:47:11;0.50;;;0.50;;
33152;SDS011;19509;43.862;26.176;2023-05-10T13:49:37;0.50;;;0.50;;
33152;SDS011;19509;43.862;26.176;2023-05-10T13:52:02;0.40;;;0.40;;
33152;SDS011;19509;43.862;26.176;2023-05-10T13:54:32;0.40;;;0.40;;
33152;SDS011;19509;43.862;26.176;2023-05-10T13:56:58;0.40;;;0.40;;
33152;SDS011;19509;43.862;26.176;2023-05-10T13:59:24;0.50;;;0.50;;
33152;SDS011;19509;43.862;26.176;2023-05-10T14:01:49;0.50;;;0.50;;
33152;SDS011;19509;43.862;26.176;2023-05-10T14:04:15;0.40;;;0.40;;
33152;SDS011;19509;43.862;26.176;2023-05-10T14:06:41;0.40;;;0.40;;
33152;SDS011;19509;43.862;26.176;2023-05-10T14:09:06;0.40;;;0.40;;
33152;SDS011;19509;43.862;26.176;2023-05-10T14:11:32;0.40;;;0.40;;
33152;SDS011;19509;43.862;26.176;2023-05-10T14:13:58;0.47;;;0.47;;
33152;SDS011;19509;43.862;26.176;2023-05-10T14:16:23;0.50;;;0.50;;
33152;SDS011;19509;43.862;26.176;2023-05-10T14:18:49;0.50;;;0.50;;
33152;SDS011;19509;43.862;26.176;2023-05-10T14:21:14;0.40;;;0.40;;
33152;SDS011;19509;43.862;26.176;2023-05-10T14:23:40;0.40;;;0.40;;
33152;SDS011;19509;43.862;26.176;2023-05-10T14:26:06;0.40;;;0.40;;
33152;SDS011;19509;43.862;26.176;2023-05-10T14:28:31;0.40;;;0.40;;
33152;SDS011;19509;43.862;26.176;2023-05-10T14:30:57;0.50;;;0.50;;
33152;SDS011;19509;43.862;26.176;2023-05-10T14:33:23;0.50;;;0.50;;
33152;SDS011;19509;43.862;26.176;2023-05-10T14:35:49;0.40;;;0.40;;
33152;SDS011;19509;43.862;26.176;2023-05-10T14:38:15;0.40;;;0.40;;
33152;SDS011;19509;43.862;26.176;2023-05-10T14:40:40;0.50;;;0.50;;
33152;SDS011;19509;43.862;26.176;2023-05-10T14:43:07;0.40;;;0.40;;
33152;SDS011;19509;43.862;26.176;2023-05-10T14:45:32;0.40;;;0.40;;
33152;SDS011;19509;43.862;26.176;2023-05-10T14:47:58;0.50;;;0.50;;
33152;SDS011;19509;43.862;26.176;2023-05-10T14:50:24;0.40;;;0.40;;
33152;SDS011;19509;43.862;26.176;2023-05-10T14:52:49;0.40;;;0.40;;
33152;SDS011;19509;43.862;26.176;2023-05-10T14:55:15;0.40;;;0.40;;
33152;SDS011;19509;43.862;26.176;2023-05-10T14:57:40;0.50;;;0.50;;
33152;SDS011;19509;43.862;26.176;2023-05-10T15:00:06;0.50;;;0.50;;
33152;SDS011;19509;43.862;26.176;2023-05-10T15:02:32;1.43;;;0.50;;
33152;SDS011;19509;43.862;26.176;2023-05-10T15:04:57;0.50;;;0.50;;
33152;SDS011;19509;43.862;26.176;2023-05-10T15:07:23;0.50;;;0.50;;
33152;SDS011;19509;43.862;26.176;2023-05-10T15:09:49;0.50;;;0.50;;
33152;SDS011;19509;43.862;26.176;2023-05-10T15:12:16;0.50;;;0.50;;
33152;SDS011;19509;43.862;26.176;2023-05-10T15:14:42;0.40;;;0.40;;
33152;SDS011;19509;43.862;26.176;2023-05-10T15:17:08;0.40;;;0.40;;